sensor_id;sensor_type;location;lat;lon;timestamp;temperature;humidity
2639;DHT22;1329;51.384;7.122;2023-02-01T00:03:33;7.50;99.90
2639;DHT22;1329;51.384;7.122;2023-02-01T00:06:56;7.60;99.90
2639;DHT22;1329;51.384;7.122;2023-02-01T00:17:25;7.60;99.90
2639;DHT22;1329;51.384;7.122;2023-02-01T00:20:28;7.60;99.90
2639;DHT22;1329;51.384;7.122;2023-02-01T00:23:42;7.60;99.90
2639;DHT22;1329;51.384;7.122;2023-02-01T00:30:13;7.60;99.90
2639;DHT22;1329;51.384;7.122;2023-02-01T00:33:05;7.60;99.90
2639;DHT22;1329;51.384;7.122;2023-02-01T00:48:55;7.60;99.90
2639;DHT22;1329;51.384;7.122;2023-02-01T00:52:15;7.60;99.90
2639;DHT22;1329;51.384;7.122;2023-02-01T00:55:05;7.60;99.90
2639;DHT22;1329;51.384;7.122;2023-02-01T01:02:16;7.60;99.90
2639;DHT22;1329;51.384;7.122;2023-02-01T01:09:50;7.60;99.90
2639;DHT22;1329;51.384;7.122;2023-02-01T01:12:52;7.60;99.90
2639;DHT22;1329;51.384;7.122;2023-02-01T01:15:35;7.60;99.90
2639;DHT22;1329;51.384;7.122;2023-02-01T01:18:46;7.60;99.90
2639;DHT22;1329;51.384;7.122;2023-02-01T01:22:20;7.60;99.90
2639;DHT22;1329;51.384;7.122;2023-02-01T01:25:13;7.60;99.90
2639;DHT22;1329;51.384;7.122;2023-02-01T01:28:10;7.60;99.90
2639;DHT22;1329;51.384;7.122;2023-02-01T01:34:24;7.60;99.90
2639;DHT22;1329;51.384;7.122;2023-02-01T01:49:01;7.70;99.90
2639;DHT22;1329;51.384;7.122;2023-02-01T01:55:57;7.60;99.90
2639;DHT22;1329;51.384;7.122;2023-02-01T02:01:58;7.60;99.90
2639;DHT22;1329;51.384;7.122;2023-02-01T02:04:26;7.60;99.90
2639;DHT22;1329;51.384;7.122;2023-02-01T02:06:56;7.60;99.90
2639;DHT22;1329;51.384;7.122;2023-02-01T02:09:25;7.60;99.90
2639;DHT22;1329;51.384;7.122;2023-02-01T02:11:52;7.60;99.90
2639;DHT22;1329;51.384;7.122;2023-02-01T02:14:21;7.60;99.90
2639;DHT22;1329;51.384;7.122;2023-02-01T02:17:01;7.60;99.90
2639;DHT22;1329;51.384;7.122;2023-02-01T02:20:00;7.50;99.90
2639;DHT22;1329;51.384;7.122;2023-02-01T02:23:12;7.50;99.90
2639;DHT22;1329;51.384;7.122;2023-02-01T02:26:20;7.50;99.90
2639;DHT22;1329;51.384;7.122;2023-02-01T02:32:22;7.50;99.90
2639;DHT22;1329;51.384;7.122;2023-02-01T02:35:10;7.40;99.90
2639;DHT22;1329;51.384;7.122;2023-02-01T02:37:42;7.40;99.90
2639;DHT22;1329;51.384;7.122;2023-02-01T02:40:16;7.40;99.90
2639;DHT22;1329;51.384;7.122;2023-02-01T02:42:52;7.40;99.90
2639;DHT22;1329;51.384;7.122;2023-02-01T02:45:47;7.30;99.90
2639;DHT22;1329;51.384;7.122;2023-02-01T02:48:37;7.30;99.90
2639;DHT22;1329;51.384;7.122;2023-02-01T02:51:13;7.30;99.90
2639;DHT22;1329;51.384;7.122;2023-02-01T02:54:02;7.30;99.90
2639;DHT22;1329;51.384;7.122;2023-02-01T02:56:50;7.30;99.90
2639;DHT22;1329;51.384;7.122;2023-02-01T02:59:38;7.30;99.90
2639;DHT22;1329;51.384;7.122;2023-02-01T03:02:26;7.30;99.90
2639;DHT22;1329;51.384;7.122;2023-02-01T03:05:11;7.30;99.90
2639;DHT22;1329;51.384;7.122;2023-02-01T03:08:04;7.30;99.90
2639;DHT22;1329;51.384;7.122;2023-02-01T03:10:45;7.30;99.90
2639;DHT22;1329;51.384;7.122;2023-02-01T03:13:22;7.30;99.90
2639;DHT22;1329;51.384;7.122;2023-02-01T03:15:58;7.30;99.90
2639;DHT22;1329;51.384;7.122;2023-02-01T03:18:32;7.30;99.90
2639;DHT22;1329;51.384;7.122;2023-02-01T03:21:08;7.20;99.90
2639;DHT22;1329;51.384;7.122;2023-02-01T03:23:39;7.20;99.90
2639;DHT22;1329;51.384;7.122;2023-02-01T03:26:09;7.20;99.90
2639;DHT22;1329;51.384;7.122;2023-02-01T03:28:39;7.10;99.90
2639;DHT22;1329;51.384;7.122;2023-02-01T03:31:09;7.10;99.90
2639;DHT22;1329;51.384;7.122;2023-02-01T03:33:36;7.10;99.90
2639;DHT22;1329;51.384;7.122;2023-02-01T03:36:15;7.10;99.90
2639;DHT22;1329;51.384;7.122;2023-02-01T03:38:50;7.10;99.90
2639;DHT22;1329;51.384;7.122;2023-02-01T03:41:27;7.10;99.90
2639;DHT22;1329;51.384;7.122;2023-02-01T03:43:58;7.10;99.90
2639;DHT22;1329;51.384;7.122;2023-02-01T03:46:32;7.10;99.90
2639;DHT22;1329;51.384;7.122;2023-02-01T03:49:02;7.10;99.90
2639;DHT22;1329;51.384;7.122;2023-02-01T03:51:32;7.20;99.90
2639;DHT22;1329;51.384;7.122;2023-02-01T03:54:02;7.20;99.90
2639;DHT22;1329;51.384;7.122;2023-02-01T03:56:31;7.20;99.90
2639;DHT22;1329;51.384;7.122;2023-02-01T03:58:59;7.20;99.90
2639;DHT22;1329;51.384;7.122;2023-02-01T04:01:28;7.20;99.90
2639;DHT22;1329;51.384;7.122;2023-02-01T04:03:56;7.30;99.90
2639;DHT22;1329;51.384;7.122;2023-02-01T04:06:24;7.30;99.90
2639;DHT22;1329;51.384;7.122;2023-02-01T04:08:51;7.30;99.90
2639;DHT22;1329;51.384;7.122;2023-02-01T04:11:19;7.30;99.90
2639;DHT22;1329;51.384;7.122;2023-02-01T04:13:46;7.30;99.90
2639;DHT22;1329;51.384;7.122;2023-02-01T04:16:13;7.30;99.90
2639;DHT22;1329;51.384;7.122;2023-02-01T04:18:40;7.30;99.90
2639;DHT22;1329;51.384;7.122;2023-02-01T04:21:07;7.30;99.90
2639;DHT22;1329;51.384;7.122;2023-02-01T04:23:34;7.30;99.90
2639;DHT22;1329;51.384;7.122;2023-02-01T04:26:03;7.30;99.90
2639;DHT22;1329;51.384;7.122;2023-02-01T04:28:32;7.30;99.90
2639;DHT22;1329;51.384;7.122;2023-02-01T04:30:59;7.30;99.90
2639;DHT22;1329;51.384;7.122;2023-02-01T04:33:26;7.30;99.90
2639;DHT22;1329;51.384;7.122;2023-02-01T04:35:52;7.30;99.90
2639;DHT22;1329;51.384;7.122;2023-02-01T04:38:20;7.30;99.90
2639;DHT22;1329;51.384;7.122;2023-02-01T04:40:47;7.30;99.90
2639;DHT22;1329;51.384;7.122;2023-02-01T04:43:15;7.40;99.90
2639;DHT22;1329;51.384;7.122;2023-02-01T04:45:48;7.40;99.90
2639;DHT22;1329;51.384;7.122;2023-02-01T04:48:15;7.40;99.90
2639;DHT22;1329;51.384;7.122;2023-02-01T04:50:43;7.40;99.90
2639;DHT22;1329;51.384;7.122;2023-02-01T04:53:12;7.40;99.90
2639;DHT22;1329;51.384;7.122;2023-02-01T04:55:39;7.40;99.90
2639;DHT22;1329;51.384;7.122;2023-02-01T04:58:07;7.40;99.90
2639;DHT22;1329;51.384;7.122;2023-02-01T05:00:34;7.40;99.90
2639;DHT22;1329;51.384;7.122;2023-02-01T05:03:02;7.40;99.90
2639;DHT22;1329;51.384;7.122;2023-02-01T05:05:29;7.40;99.90
2639;DHT22;1329;51.384;7.122;2023-02-01T05:07:56;7.40;99.90
2639;DHT22;1329;51.384;7.122;2023-02-01T05:10:23;7.50;99.90
2639;DHT22;1329;51.384;7.122;2023-02-01T05:12:50;7.50;99.90
2639;DHT22;1329;51.384;7.122;2023-02-01T05:15:34;7.50;99.90
2639;DHT22;1329;51.384;7.122;2023-02-01T05:18:02;7.50;99.90
2639;DHT22;1329;51.384;7.122;2023-02-01T05:20:29;7.50;99.90
2639;DHT22;1329;51.384;7.122;2023-02-01T05:22:59;7.40;99.90
2639;DHT22;1329;51.384;7.122;2023-02-01T05:25:26;7.50;99.90
2639;DHT22;1329;51.384;7.122;2023-02-01T05:27:53;7.50;99.90
2639;DHT22;1329;51.384;7.122;2023-02-01T05:30:20;7.40;99.90
2639;DHT22;1329;51.384;7.122;2023-02-01T05:32:49;7.40;99.90
2639;DHT22;1329;51.384;7.122;2023-02-01T05:35:18;7.40;99.90
2639;DHT22;1329;51.384;7.122;2023-02-01T05:37:45;7.40;99.90
2639;DHT22;1329;51.384;7.122;2023-02-01T05:40:12;7.40;99.90
2639;DHT22;1329;51.384;7.122;2023-02-01T05:42:39;7.40;99.90
2639;DHT22;1329;51.384;7.122;2023-02-01T05:45:07;7.40;99.90
2639;DHT22;1329;51.384;7.122;2023-02-01T05:47:34;7.40;99.90
2639;DHT22;1329;51.384;7.122;2023-02-01T05:50:01;7.40;99.90
2639;DHT22;1329;51.384;7.122;2023-02-01T05:52:30;7.40;99.90
2639;DHT22;1329;51.384;7.122;2023-02-01T05:54:57;7.40;99.90
2639;DHT22;1329;51.384;7.122;2023-02-01T05:57:24;7.30;99.90
2639;DHT22;1329;51.384;7.122;2023-02-01T05:59:51;7.30;99.90
2639;DHT22;1329;51.384;7.122;2023-02-01T06:02:18;7.30;99.90
2639;DHT22;1329;51.384;7.122;2023-02-01T06:04:45;7.30;99.90
2639;DHT22;1329;51.384;7.122;2023-02-01T06:07:12;7.20;99.90
2639;DHT22;1329;51.384;7.122;2023-02-01T06:09:40;7.20;99.90
2639;DHT22;1329;51.384;7.122;2023-02-01T06:12:07;7.20;99.90
2639;DHT22;1329;51.384;7.122;2023-02-01T06:14:34;7.10;99.90
2639;DHT22;1329;51.384;7.122;2023-02-01T06:17:02;7.10;99.90
2639;DHT22;1329;51.384;7.122;2023-02-01T06:19:31;7.10;99.90
2639;DHT22;1329;51.384;7.122;2023-02-01T06:21:58;7.10;99.90
2639;DHT22;1329;51.384;7.122;2023-02-01T06:24:24;7.10;99.90
2639;DHT22;1329;51.384;7.122;2023-02-01T06:26:53;7.10;99.90
2639;DHT22;1329;51.384;7.122;2023-02-01T06:29:20;7.10;99.90
2639;DHT22;1329;51.384;7.122;2023-02-01T06:31:46;7.10;99.90
2639;DHT22;1329;51.384;7.122;2023-02-01T06:34:13;7.20;99.90
2639;DHT22;1329;51.384;7.122;2023-02-01T06:36:40;7.20;99.90
2639;DHT22;1329;51.384;7.122;2023-02-01T06:39:07;7.20;99.90
2639;DHT22;1329;51.384;7.122;2023-02-01T06:41:33;7.20;99.90
2639;DHT22;1329;51.384;7.122;2023-02-01T06:44:02;7.20;99.90
2639;DHT22;1329;51.384;7.122;2023-02-01T06:46:29;7.30;99.90
2639;DHT22;1329;51.384;7.122;2023-02-01T06:48:56;7.30;99.90
2639;DHT22;1329;51.384;7.122;2023-02-01T06:51:24;7.30;99.90
2639;DHT22;1329;51.384;7.122;2023-02-01T06:53:52;7.30;99.90
2639;DHT22;1329;51.384;7.122;2023-02-01T06:56:19;7.30;99.90
2639;DHT22;1329;51.384;7.122;2023-02-01T06:58:46;7.30;99.90
2639;DHT22;1329;51.384;7.122;2023-02-01T07:01:15;7.30;99.90
2639;DHT22;1329;51.384;7.122;2023-02-01T07:03:42;7.40;99.90
2639;DHT22;1329;51.384;7.122;2023-02-01T07:06:13;7.30;99.90
2639;DHT22;1329;51.384;7.122;2023-02-01T07:08:40;7.40;99.90
2639;DHT22;1329;51.384;7.122;2023-02-01T07:11:12;7.40;99.90
2639;DHT22;1329;51.384;7.122;2023-02-01T07:13:40;7.40;99.90
2639;DHT22;1329;51.384;7.122;2023-02-01T07:16:09;7.40;99.90
2639;DHT22;1329;51.384;7.122;2023-02-01T07:18:38;7.40;99.90
2639;DHT22;1329;51.384;7.122;2023-02-01T07:21:05;7.40;99.90
2639;DHT22;1329;51.384;7.122;2023-02-01T07:23:32;7.40;99.90
2639;DHT22;1329;51.384;7.122;2023-02-01T07:26:01;7.40;99.90
2639;DHT22;1329;51.384;7.122;2023-02-01T07:28:30;7.40;99.90
2639;DHT22;1329;51.384;7.122;2023-02-01T07:31:02;7.40;99.90
2639;DHT22;1329;51.384;7.122;2023-02-01T07:33:29;7.40;99.90
2639;DHT22;1329;51.384;7.122;2023-02-01T07:35:59;7.40;99.90
2639;DHT22;1329;51.384;7.122;2023-02-01T07:38:27;7.50;99.90
2639;DHT22;1329;51.384;7.122;2023-02-01T07:40:57;7.50;99.90
2639;DHT22;1329;51.384;7.122;2023-02-01T07:43:25;7.50;99.90
2639;DHT22;1329;51.384;7.122;2023-02-01T07:45:52;7.50;99.90
2639;DHT22;1329;51.384;7.122;2023-02-01T07:48:21;7.50;99.90
2639;DHT22;1329;51.384;7.122;2023-02-01T07:50:57;7.50;99.90
2639;DHT22;1329;51.384;7.122;2023-02-01T07:53:25;7.50;99.90
2639;DHT22;1329;51.384;7.122;2023-02-01T07:55:51;7.50;99.90
2639;DHT22;1329;51.384;7.122;2023-02-01T07:58:18;7.50;99.90
2639;DHT22;1329;51.384;7.122;2023-02-01T08:00:45;7.50;99.90
2639;DHT22;1329;51.384;7.122;2023-02-01T08:03:30;7.50;99.90
2639;DHT22;1329;51.384;7.122;2023-02-01T08:05:58;7.50;99.90
2639;DHT22;1329;51.384;7.122;2023-02-01T08:08:25;7.60;99.90
2639;DHT22;1329;51.384;7.122;2023-02-01T08:10:56;7.60;99.90
2639;DHT22;1329;51.384;7.122;2023-02-01T08:13:23;7.50;99.90
2639;DHT22;1329;51.384;7.122;2023-02-01T08:15:50;7.60;99.90
2639;DHT22;1329;51.384;7.122;2023-02-01T08:18:17;7.60;99.90
2639;DHT22;1329;51.384;7.122;2023-02-01T08:20:44;7.60;99.90
2639;DHT22;1329;51.384;7.122;2023-02-01T08:23:14;7.70;99.90
2639;DHT22;1329;51.384;7.122;2023-02-01T08:25:41;7.70;99.90
2639;DHT22;1329;51.384;7.122;2023-02-01T08:28:08;7.70;99.90
2639;DHT22;1329;51.384;7.122;2023-02-01T08:30:36;7.70;99.90
2639;DHT22;1329;51.384;7.122;2023-02-01T08:33:04;7.70;99.90
2639;DHT22;1329;51.384;7.122;2023-02-01T08:35:32;7.70;99.90
2639;DHT22;1329;51.384;7.122;2023-02-01T08:37:59;7.70;99.90
2639;DHT22;1329;51.384;7.122;2023-02-01T08:40:27;7.80;99.90
2639;DHT22;1329;51.384;7.122;2023-02-01T08:42:54;7.80;99.90
2639;DHT22;1329;51.384;7.122;2023-02-01T08:45:23;7.80;99.90
2639;DHT22;1329;51.384;7.122;2023-02-01T08:47:51;7.80;99.90
2639;DHT22;1329;51.384;7.122;2023-02-01T08:50:20;7.90;99.90
2639;DHT22;1329;51.384;7.122;2023-02-01T08:52:47;7.90;99.90
2639;DHT22;1329;51.384;7.122;2023-02-01T08:55:15;7.90;99.90
2639;DHT22;1329;51.384;7.122;2023-02-01T08:57:43;7.90;99.90
2639;DHT22;1329;51.384;7.122;2023-02-01T09:00:12;7.90;99.90
2639;DHT22;1329;51.384;7.122;2023-02-01T09:02:41;7.90;99.90
2639;DHT22;1329;51.384;7.122;2023-02-01T09:05:08;7.90;99.90
2639;DHT22;1329;51.384;7.122;2023-02-01T09:07:36;8.00;99.90
2639;DHT22;1329;51.384;7.122;2023-02-01T09:10:04;8.00;99.90
2639;DHT22;1329;51.384;7.122;2023-02-01T09:12:33;8.00;99.90
2639;DHT22;1329;51.384;7.122;2023-02-01T09:15:03;8.00;99.90
2639;DHT22;1329;51.384;7.122;2023-02-01T09:17:32;8.00;99.90
2639;DHT22;1329;51.384;7.122;2023-02-01T09:19:59;8.00;99.90
2639;DHT22;1329;51.384;7.122;2023-02-01T09:22:26;8.00;99.90
2639;DHT22;1329;51.384;7.122;2023-02-01T09:24:53;8.00;99.90
2639;DHT22;1329;51.384;7.122;2023-02-01T09:27:20;8.00;99.90
2639;DHT22;1329;51.384;7.122;2023-02-01T09:29:47;8.00;99.90
2639;DHT22;1329;51.384;7.122;2023-02-01T09:32:19;8.00;99.90
2639;DHT22;1329;51.384;7.122;2023-02-01T09:34:46;8.00;99.90
2639;DHT22;1329;51.384;7.122;2023-02-01T09:37:13;8.00;99.90
2639;DHT22;1329;51.384;7.122;2023-02-01T09:39:40;8.00;99.90
2639;DHT22;1329;51.384;7.122;2023-02-01T09:42:16;8.00;99.90
2639;DHT22;1329;51.384;7.122;2023-02-01T09:44:58;8.10;99.90
2639;DHT22;1329;51.384;7.122;2023-02-01T09:47:45;8.00;99.90
2639;DHT22;1329;51.384;7.122;2023-02-01T09:50:15;8.00;99.90
2639;DHT22;1329;51.384;7.122;2023-02-01T09:52:50;8.00;99.90
2639;DHT22;1329;51.384;7.122;2023-02-01T09:55:26;8.00;99.90
2639;DHT22;1329;51.384;7.122;2023-02-01T09:58:02;8.00;99.90
2639;DHT22;1329;51.384;7.122;2023-02-01T10:00:35;8.00;99.90
2639;DHT22;1329;51.384;7.122;2023-02-01T10:03:04;8.10;99.90
2639;DHT22;1329;51.384;7.122;2023-02-01T10:05:48;8.10;99.90
2639;DHT22;1329;51.384;7.122;2023-02-01T10:08:31;8.10;99.90
2639;DHT22;1329;51.384;7.122;2023-02-01T10:11:12;8.20;99.90
2639;DHT22;1329;51.384;7.122;2023-02-01T10:13:52;8.20;99.90
2639;DHT22;1329;51.384;7.122;2023-02-01T10:16:34;8.20;99.90
2639;DHT22;1329;51.384;7.122;2023-02-01T10:19:27;8.20;99.90
2639;DHT22;1329;51.384;7.122;2023-02-01T10:22:03;8.20;99.90
2639;DHT22;1329;51.384;7.122;2023-02-01T10:24:39;8.20;99.90
2639;DHT22;1329;51.384;7.122;2023-02-01T10:27:13;8.30;99.90
2639;DHT22;1329;51.384;7.122;2023-02-01T10:29:45;8.30;99.90
2639;DHT22;1329;51.384;7.122;2023-02-01T10:32:16;8.30;99.90
2639;DHT22;1329;51.384;7.122;2023-02-01T10:34:48;8.30;99.90
2639;DHT22;1329;51.384;7.122;2023-02-01T10:37:24;8.30;99.90
2639;DHT22;1329;51.384;7.122;2023-02-01T10:39:55;8.30;99.90
2639;DHT22;1329;51.384;7.122;2023-02-01T10:42:26;8.40;99.90
2639;DHT22;1329;51.384;7.122;2023-02-01T10:44:57;8.40;99.90
2639;DHT22;1329;51.384;7.122;2023-02-01T10:47:28;8.40;99.90
2639;DHT22;1329;51.384;7.122;2023-02-01T10:50:02;8.40;99.90
2639;DHT22;1329;51.384;7.122;2023-02-01T10:52:39;8.40;99.90
2639;DHT22;1329;51.384;7.122;2023-02-01T10:55:36;8.50;99.90
2639;DHT22;1329;51.384;7.122;2023-02-01T10:58:06;8.50;99.90
2639;DHT22;1329;51.384;7.122;2023-02-01T11:00:42;8.50;99.90
2639;DHT22;1329;51.384;7.122;2023-02-01T11:03:41;8.50;99.90
2639;DHT22;1329;51.384;7.122;2023-02-01T11:06:17;8.50;99.90
2639;DHT22;1329;51.384;7.122;2023-02-01T11:08:48;8.50;99.90
2639;DHT22;1329;51.384;7.122;2023-02-01T11:11:16;8.50;99.90
2639;DHT22;1329;51.384;7.122;2023-02-01T11:13:43;8.50;99.90
2639;DHT22;1329;51.384;7.122;2023-02-01T11:16:12;8.50;99.90
2639;DHT22;1329;51.384;7.122;2023-02-01T11:18:41;8.50;99.90
2639;DHT22;1329;51.384;7.122;2023-02-01T11:21:10;8.50;99.90
2639;DHT22;1329;51.384;7.122;2023-02-01T11:23:43;8.60;99.90
2639;DHT22;1329;51.384;7.122;2023-02-01T11:26:13;8.60;99.90
2639;DHT22;1329;51.384;7.122;2023-02-01T11:28:48;8.60;99.90
2639;DHT22;1329;51.384;7.122;2023-02-01T11:31:19;8.60;99.90
2639;DHT22;1329;51.384;7.122;2023-02-01T11:33:50;8.70;99.90
2639;DHT22;1329;51.384;7.122;2023-02-01T11:36:24;8.70;99.90
2639;DHT22;1329;51.384;7.122;2023-02-01T11:39:07;8.70;99.90
2639;DHT22;1329;51.384;7.122;2023-02-01T11:41:41;8.80;99.90
2639;DHT22;1329;51.384;7.122;2023-02-01T11:44:20;8.80;99.90
2639;DHT22;1329;51.384;7.122;2023-02-01T11:46:49;8.80;99.90
2639;DHT22;1329;51.384;7.122;2023-02-01T11:49:21;8.80;99.90
2639;DHT22;1329;51.384;7.122;2023-02-01T11:52:05;8.80;99.90
2639;DHT22;1329;51.384;7.122;2023-02-01T11:54:49;8.90;99.90
2639;DHT22;1329;51.384;7.122;2023-02-01T11:57:41;8.90;99.90
2639;DHT22;1329;51.384;7.122;2023-02-01T12:00:34;8.90;99.90
2639;DHT22;1329;51.384;7.122;2023-02-01T12:03:24;8.90;99.90
2639;DHT22;1329;51.384;7.122;2023-02-01T12:05:59;8.90;99.90
2639;DHT22;1329;51.384;7.122;2023-02-01T12:08:54;8.80;99.90
2639;DHT22;1329;51.384;7.122;2023-02-01T12:11:38;8.70;99.90
2639;DHT22;1329;51.384;7.122;2023-02-01T12:14:23;8.70;99.90
2639;DHT22;1329;51.384;7.122;2023-02-01T12:17:14;8.60;99.90
2639;DHT22;1329;51.384;7.122;2023-02-01T12:20:03;8.60;99.90
2639;DHT22;1329;51.384;7.122;2023-02-01T12:22:45;8.50;99.90
2639;DHT22;1329;51.384;7.122;2023-02-01T12:25:34;8.50;99.90
2639;DHT22;1329;51.384;7.122;2023-02-01T12:28:35;8.50;99.90
2639;DHT22;1329;51.384;7.122;2023-02-01T12:31:24;8.50;99.90
2639;DHT22;1329;51.384;7.122;2023-02-01T12:34:32;8.50;99.90
2639;DHT22;1329;51.384;7.122;2023-02-01T12:37:15;8.50;99.90
2639;DHT22;1329;51.384;7.122;2023-02-01T12:40:00;8.50;99.90
2639;DHT22;1329;51.384;7.122;2023-02-01T12:42:36;8.50;99.90
2639;DHT22;1329;51.384;7.122;2023-02-01T12:45:12;8.50;99.90
2639;DHT22;1329;51.384;7.122;2023-02-01T12:47:44;8.50;99.90
2639;DHT22;1329;51.384;7.122;2023-02-01T12:50:18;8.50;99.90
2639;DHT22;1329;51.384;7.122;2023-02-01T12:52:49;8.50;99.90
2639;DHT22;1329;51.384;7.122;2023-02-01T12:55:21;8.60;99.90
2639;DHT22;1329;51.384;7.122;2023-02-01T12:57:53;8.60;99.90
2639;DHT22;1329;51.384;7.122;2023-02-01T13:00:27;8.60;99.90
2639;DHT22;1329;51.384;7.122;2023-02-01T13:03:01;8.60;99.90
2639;DHT22;1329;51.384;7.122;2023-02-01T13:05:43;8.60;99.90
2639;DHT22;1329;51.384;7.122;2023-02-01T13:08:17;8.60;99.90
2639;DHT22;1329;51.384;7.122;2023-02-01T13:10:48;8.60;99.90
2639;DHT22;1329;51.384;7.122;2023-02-01T13:13:22;8.60;99.90
2639;DHT22;1329;51.384;7.122;2023-02-01T13:15:58;8.60;99.90
2639;DHT22;1329;51.384;7.122;2023-02-01T13:18:34;8.60;99.90
2639;DHT22;1329;51.384;7.122;2023-02-01T13:21:06;8.60;99.90
2639;DHT22;1329;51.384;7.122;2023-02-01T13:23:37;8.60;99.90
2639;DHT22;1329;51.384;7.122;2023-02-01T13:26:05;8.60;99.90
2639;DHT22;1329;51.384;7.122;2023-02-01T13:28:40;8.60;99.90
2639;DHT22;1329;51.384;7.122;2023-02-01T13:31:23;8.50;99.90
2639;DHT22;1329;51.384;7.122;2023-02-01T13:34:10;8.50;99.90
2639;DHT22;1329;51.384;7.122;2023-02-01T13:37:02;8.40;99.90
2639;DHT22;1329;51.384;7.122;2023-02-01T13:39:54;8.40;99.90
2639;DHT22;1329;51.384;7.122;2023-02-01T13:42:33;8.40;99.90
2639;DHT22;1329;51.384;7.122;2023-02-01T13:45:04;8.40;99.90
2639;DHT22;1329;51.384;7.122;2023-02-01T13:47:41;8.40;99.90
2639;DHT22;1329;51.384;7.122;2023-02-01T13:50:18;8.40;99.90
2639;DHT22;1329;51.384;7.122;2023-02-01T13:52:52;8.40;99.90
2639;DHT22;1329;51.384;7.122;2023-02-01T13:55:30;8.40;99.90
2639;DHT22;1329;51.384;7.122;2023-02-01T13:58:04;8.40;99.90
2639;DHT22;1329;51.384;7.122;2023-02-01T14:00:40;8.40;99.90
2639;DHT22;1329;51.384;7.122;2023-02-01T14:03:11;8.40;99.90
2639;DHT22;1329;51.384;7.122;2023-02-01T14:06:01;8.40;99.90
2639;DHT22;1329;51.384;7.122;2023-02-01T14:08:42;8.50;99.90
2639;DHT22;1329;51.384;7.122;2023-02-01T14:11:32;8.50;99.90
2639;DHT22;1329;51.384;7.122;2023-02-01T14:17:32;8.50;99.90
2639;DHT22;1329;51.384;7.122;2023-02-01T14:23:28;8.60;99.90
2639;DHT22;1329;51.384;7.122;2023-02-01T14:26:11;8.60;99.90
2639;DHT22;1329;51.384;7.122;2023-02-01T14:28:44;8.70;99.90
2639;DHT22;1329;51.384;7.122;2023-02-01T14:31:16;8.70;99.90
2639;DHT22;1329;51.384;7.122;2023-02-01T14:33:56;8.70;99.90
2639;DHT22;1329;51.384;7.122;2023-02-01T14:36:26;8.70;99.90
2639;DHT22;1329;51.384;7.122;2023-02-01T14:38:53;8.80;99.90
2639;DHT22;1329;51.384;7.122;2023-02-01T14:41:31;8.80;99.90
2639;DHT22;1329;51.384;7.122;2023-02-01T14:44:25;8.80;99.90
2639;DHT22;1329;51.384;7.122;2023-02-01T14:47:09;8.90;99.90
2639;DHT22;1329;51.384;7.122;2023-02-01T14:50:04;8.90;99.90
2639;DHT22;1329;51.384;7.122;2023-02-01T14:52:39;8.90;99.90
2639;DHT22;1329;51.384;7.122;2023-02-01T14:55:12;9.00;99.90
2639;DHT22;1329;51.384;7.122;2023-02-01T14:57:43;9.00;99.90
2639;DHT22;1329;51.384;7.122;2023-02-01T15:00:19;9.00;99.90
2639;DHT22;1329;51.384;7.122;2023-02-01T15:02:49;9.00;99.90
2639;DHT22;1329;51.384;7.122;2023-02-01T15:05:33;9.10;99.90
2639;DHT22;1329;51.384;7.122;2023-02-01T15:08:06;9.10;99.90
2639;DHT22;1329;51.384;7.122;2023-02-01T15:10:41;9.10;99.90
2639;DHT22;1329;51.384;7.122;2023-02-01T15:13:19;9.10;99.90
2639;DHT22;1329;51.384;7.122;2023-02-01T15:16:02;9.10;99.90
2639;DHT22;1329;51.384;7.122;2023-02-01T15:18:30;9.20;99.90
2639;DHT22;1329;51.384;7.122;2023-02-01T15:21:00;9.20;99.90
2639;DHT22;1329;51.384;7.122;2023-02-01T15:23:28;9.20;99.90
2639;DHT22;1329;51.384;7.122;2023-02-01T15:25:55;9.10;99.90
2639;DHT22;1329;51.384;7.122;2023-02-01T15:28:23;9.10;99.90
2639;DHT22;1329;51.384;7.122;2023-02-01T15:30:53;9.10;99.90
2639;DHT22;1329;51.384;7.122;2023-02-01T15:33:22;9.00;99.90
2639;DHT22;1329;51.384;7.122;2023-02-01T15:35:50;9.00;99.90
2639;DHT22;1329;51.384;7.122;2023-02-01T15:38:36;9.00;99.90
2639;DHT22;1329;51.384;7.122;2023-02-01T15:41:10;9.00;99.90
2639;DHT22;1329;51.384;7.122;2023-02-01T15:43:41;8.90;99.90
2639;DHT22;1329;51.384;7.122;2023-02-01T15:46:13;9.00;99.90
2639;DHT22;1329;51.384;7.122;2023-02-01T15:48:46;9.00;99.90
2639;DHT22;1329;51.384;7.122;2023-02-01T15:51:17;9.00;99.90
2639;DHT22;1329;51.384;7.122;2023-02-01T15:53:50;9.00;99.90
2639;DHT22;1329;51.384;7.122;2023-02-01T15:56:26;9.00;99.90
2639;DHT22;1329;51.384;7.122;2023-02-01T15:58:56;9.00;99.90
2639;DHT22;1329;51.384;7.122;2023-02-01T16:01:25;9.00;99.90
2639;DHT22;1329;51.384;7.122;2023-02-01T16:04:03;9.10;99.90
2639;DHT22;1329;51.384;7.122;2023-02-01T16:06:32;9.10;99.90
2639;DHT22;1329;51.384;7.122;2023-02-01T16:09:09;9.10;99.90
2639;DHT22;1329;51.384;7.122;2023-02-01T16:11:48;9.10;99.90
2639;DHT22;1329;51.384;7.122;2023-02-01T16:14:20;9.10;99.90
2639;DHT22;1329;51.384;7.122;2023-02-01T16:16:47;9.10;99.90
2639;DHT22;1329;51.384;7.122;2023-02-01T16:19:14;9.10;99.90
2639;DHT22;1329;51.384;7.122;2023-02-01T16:21:41;9.10;99.90
2639;DHT22;1329;51.384;7.122;2023-02-01T16:24:09;9.10;99.90
2639;DHT22;1329;51.384;7.122;2023-02-01T16:26:36;9.10;99.90
2639;DHT22;1329;51.384;7.122;2023-02-01T16:29:04;9.20;99.90
2639;DHT22;1329;51.384;7.122;2023-02-01T16:31:34;9.20;99.90
2639;DHT22;1329;51.384;7.122;2023-02-01T16:34:02;9.20;99.90
2639;DHT22;1329;51.384;7.122;2023-02-01T16:36:29;9.20;99.90
2639;DHT22;1329;51.384;7.122;2023-02-01T16:38:56;9.20;99.90
2639;DHT22;1329;51.384;7.122;2023-02-01T16:41:25;9.20;99.90
2639;DHT22;1329;51.384;7.122;2023-02-01T16:43:54;9.20;99.90
2639;DHT22;1329;51.384;7.122;2023-02-01T16:46:24;9.10;99.90
2639;DHT22;1329;51.384;7.122;2023-02-01T16:48:55;9.10;99.90
2639;DHT22;1329;51.384;7.122;2023-02-01T16:51:27;9.00;99.90
2639;DHT22;1329;51.384;7.122;2023-02-01T16:53:57;8.90;99.90
2639;DHT22;1329;51.384;7.122;2023-02-01T16:56:29;8.90;99.90
2639;DHT22;1329;51.384;7.122;2023-02-01T16:58:57;8.80;99.90
2639;DHT22;1329;51.384;7.122;2023-02-01T17:01:25;8.80;99.90
2639;DHT22;1329;51.384;7.122;2023-02-01T17:03:52;8.70;99.90
2639;DHT22;1329;51.384;7.122;2023-02-01T17:06:21;8.70;99.90
2639;DHT22;1329;51.384;7.122;2023-02-01T17:08:51;8.70;99.90
2639;DHT22;1329;51.384;7.122;2023-02-01T17:11:20;8.70;99.90
2639;DHT22;1329;51.384;7.122;2023-02-01T17:13:49;8.70;99.90
2639;DHT22;1329;51.384;7.122;2023-02-01T17:16:21;8.70;99.90
2639;DHT22;1329;51.384;7.122;2023-02-01T17:18:54;8.70;99.90
2639;DHT22;1329;51.384;7.122;2023-02-01T17:21:39;8.70;99.90
2639;DHT22;1329;51.384;7.122;2023-02-01T17:24:11;8.70;99.90
2639;DHT22;1329;51.384;7.122;2023-02-01T17:26:39;8.70;99.90
2639;DHT22;1329;51.384;7.122;2023-02-01T17:29:08;8.70;99.90
2639;DHT22;1329;51.384;7.122;2023-02-01T17:31:39;8.70;99.90
2639;DHT22;1329;51.384;7.122;2023-02-01T17:34:08;8.70;99.90
2639;DHT22;1329;51.384;7.122;2023-02-01T17:36:36;8.80;99.90
2639;DHT22;1329;51.384;7.122;2023-02-01T17:39:04;8.80;99.90
2639;DHT22;1329;51.384;7.122;2023-02-01T17:41:32;8.80;99.90
2639;DHT22;1329;51.384;7.122;2023-02-01T17:43:59;8.80;99.90
2639;DHT22;1329;51.384;7.122;2023-02-01T17:46:27;8.80;99.90
2639;DHT22;1329;51.384;7.122;2023-02-01T17:48:54;8.90;99.90
2639;DHT22;1329;51.384;7.122;2023-02-01T17:51:24;8.90;99.90
2639;DHT22;1329;51.384;7.122;2023-02-01T17:53:52;8.90;99.90
2639;DHT22;1329;51.384;7.122;2023-02-01T17:56:21;9.00;99.90
2639;DHT22;1329;51.384;7.122;2023-02-01T17:58:49;9.00;99.90
2639;DHT22;1329;51.384;7.122;2023-02-01T18:01:19;9.00;99.90
2639;DHT22;1329;51.384;7.122;2023-02-01T18:03:48;9.00;99.90
2639;DHT22;1329;51.384;7.122;2023-02-01T18:06:18;9.00;99.90
2639;DHT22;1329;51.384;7.122;2023-02-01T18:08:45;9.10;99.90
2639;DHT22;1329;51.384;7.122;2023-02-01T18:11:14;9.00;99.90